Time;durP1;ratioP1;P1;durP2;ratioP2;P2;SDS_P1;SDS_P2;PMS_P1;PMS_P2;Temp;Humidity;BMP_temperature;BMP_pressure;BME280_temperature;BME280_humidity;BME280_pressure;Samples;Min_cycle;Max_cycle;Signal;HPM_P1;HPM_P2
2023/03/10 00:02:02;;;;;;;1.50;1.20;;;13.00;57.70;;;;;;6224177;23;20028;-71
2023/03/10 00:04:28;;;;;;;1.02;0.85;;;13.00;57.70;;;;;;6224418;23;20064;-71
2023/03/10 00:06:54;;;;;;;1.10;1.00;;;13.00;57.60;;;;;;6224408;23;20024;-72
2023/03/10 00:09:19;;;;;;;2.60;1.10;;;13.00;57.60;;;;;;6224388;23;20047;-71
2023/03/10 00:11:45;;;;;;;0.93;0.80;;;13.00;57.60;;;;;;6224378;23;20568;-71
2023/03/10 00:14:11;;;;;;;1.10;1.00;;;13.00;57.60;;;;;;6224363;23;20001;-71
2023/03/10 00:16:36;;;;;;;0.88;0.88;;;13.00;57.70;;;;;;6224226;23;20332;-71
2023/03/10 00:19:02;;;;;;;1.13;0.93;;;13.00;58.30;;;;;;6224333;23;19999;-71
2023/03/10 00:21:30;;;;;;;0.90;0.80;;;13.00;57.60;;;;;;6224333;23;20506;-71
2023/03/10 00:23:56;;;;;;;0.98;0.93;;;13.00;57.60;;;;;;6214746;23;20020;-76
2023/03/10 00:26:24;;;;;;;1.10;0.95;;;13.00;57.60;;;;;;6224417;23;20008;-76
2023/03/10 00:28:50;;;;;;;1.10;0.90;;;13.00;57.50;;;;;;6224277;23;19997;-73
2023/03/10 00:31:18;;;;;;;1.10;1.00;;;13.00;57.50;;;;;;6224295;23;20065;-76
2023/03/10 00:33:45;;;;;;;1.08;0.82;;;13.00;57.60;;;;;;6224269;23;19993;-76
2023/03/10 00:36:13;;;;;;;1.17;0.93;;;13.00;57.50;;;;;;6224173;23;20012;-76
2023/03/10 00:38:40;;;;;;;1.00;0.93;;;13.00;57.60;;;;;;6224243;23;19993;-76
2023/03/10 00:41:09;;;;;;;0.82;0.82;;;13.00;57.60;;;;;;6224445;23;20095;-71
2023/03/10 00:43:35;;;;;;;1.05;0.90;;;13.00;57.50;;;;;;6224195;23;19993;-72
2023/03/10 00:46:01;;;;;;;1.05;0.90;;;13.00;57.50;;;;;;6214535;23;20067;-71
2023/03/10 00:48:27;;;;;;;1.55;0.80;;;13.00;57.60;;;;;;6224286;23;20072;-71
2023/03/10 00:50:53;;;;;;;1.17;0.88;;;13.00;57.60;;;;;;6224207;23;20101;-71
2023/03/10 00:53:19;;;;;;;0.70;0.68;;;13.00;57.50;;;;;;6224222;23;20003;-71
2023/03/10 00:55:56;;;;;;;0.93;0.80;;;13.00;57.50;;;;;;6225332;23;20008;-71
2023/03/10 00:58:22;;;;;;;0.90;0.77;;;13.00;57.50;;;;;;6226031;23;19993;-71
2023/03/10 01:00:48;;;;;;;1.77;0.80;;;13.00;57.50;;;;;;6226057;23;20050;-71
2023/03/10 01:03:13;;;;;;;1.13;0.80;;;13.00;57.50;;;;;;6225756;23;20008;-71
2023/03/10 01:05:39;;;;;;;0.52;0.52;;;13.00;57.50;;;;;;6225849;23;20035;-72
2023/03/10 01:08:04;;;;;;;0.50;0.50;;;13.00;57.50;;;;;;6225918;23;19993;-71
2023/03/10 01:10:30;;;;;;;0.73;0.60;;;13.00;57.50;;;;;;6225873;23;20011;-71
2023/03/10 01:12:56;;;;;;;0.55;0.55;;;13.00;58.10;;;;;;6225759;23;20325;-71
2023/03/10 01:15:21;;;;;;;1.30;0.80;;;13.00;57.50;;;;;;6225714;23;20059;-71
2023/03/10 01:17:47;;;;;;;0.63;0.60;;;13.00;57.50;;;;;;6225792;23;20324;-76
2023/03/10 01:20:14;;;;;;;0.63;0.63;;;13.00;57.50;;;;;;6225843;23;20024;-76
2023/03/10 01:22:40;;;;;;;0.70;0.65;;;13.00;57.50;;;;;;6225733;23;19993;-76
2023/03/10 01:25:06;;;;;;;0.63;0.63;;;13.00;57.50;;;;;;6225815;23;20000;-76
2023/03/10 01:27:31;;;;;;;0.50;0.50;;;13.00;57.50;;;;;;6225672;23;20004;-76
2023/03/10 01:29:57;;;;;;;0.60;0.50;;;13.00;57.50;;;;;;6215949;23;20000;-76
2023/03/10 01:32:22;;;;;;;0.75;0.75;;;13.00;57.50;;;;;;6225666;23;20031;-76
2023/03/10 01:34:48;;;;;;;0.73;0.57;;;13.00;57.50;;;;;;6225654;23;20112;-76
2023/03/10 01:37:14;;;;;;;0.80;0.80;;;13.00;57.50;;;;;;6225773;23;19996;-71
2023/03/10 01:39:39;;;;;;;0.60;0.60;;;13.00;57.50;;;;;;6225632;23;20454;-72
2023/03/10 01:42:05;;;;;;;1.83;0.60;;;13.00;57.50;;;;;;6225554;23;20054;-71
2023/03/10 01:44:31;;;;;;;0.60;0.50;;;13.00;57.40;;;;;;6225560;23;20004;-71
2023/03/10 01:46:57;;;;;;;0.70;0.63;;;13.00;57.50;;;;;;6225502;23;20005;-71
2023/03/10 01:49:36;;;;;;;0.43;0.43;;;13.00;57.40;;;;;;6225537;23;20023;-71
2023/03/10 01:52:07;;;;;;;0.60;0.60;;;13.00;57.40;;;;;;6225450;23;20000;-71
2023/03/10 01:54:45;;;;;;;0.57;0.57;;;13.00;57.40;;;;;;6215301;23;20008;-71
2023/03/10 01:57:14;;;;;;;0.57;0.50;;;13.00;57.50;;;;;;6225550;23;20009;-71
2023/03/10 01:59:40;;;;;;;0.70;0.70;;;13.00;57.40;;;;;;6213737;23;20001;-71
2023/03/10 02:02:06;;;;;;;0.70;0.70;;;13.00;57.50;;;;;;6225045;23;20026;-71
2023/03/10 02:04:37;;;;;;;0.50;0.50;;;13.00;57.50;;;;;;6215527;23;20027;-71
2023/03/10 02:07:06;;;;;;;0.60;0.60;;;13.00;57.40;;;;;;6214803;23;20076;-71
2023/03/10 02:09:36;;;;;;;0.43;0.43;;;13.00;57.40;;;;;;6225299;23;20004;-71
2023/03/10 02:12:03;;;;;;;0.63;0.60;;;13.00;57.50;;;;;;6225288;23;20000;-71
2023/03/10 02:14:30;;;;;;;0.40;0.40;;;13.00;57.40;;;;;;6225265;23;19997;-72
2023/03/10 02:16:56;;;;;;;0.50;0.47;;;13.00;57.40;;;;;;6225188;23;20007;-71
2023/03/10 02:19:28;;;;;;;0.50;0.50;;;13.00;57.40;;;;;;6225249;23;19993;-71
2023/03/10 02:22:06;;;;;;;0.60;0.60;;;13.00;58.00;;;;;;6225216;23;19997;-71
2023/03/10 02:24:43;;;;;;;0.40;0.40;;;13.00;57.40;;;;;;6225234;23;20404;-71
2023/03/10 02:27:30;;;;;;;0.73;0.68;;;13.00;57.50;;;;;;6215418;23;20313;-71
2023/03/10 02:30:06;;;;;;;0.52;0.40;;;13.00;57.40;;;;;;6225131;23;20043;-71
2023/03/10 02:32:36;;;;;;;0.35;0.32;;;13.00;58.00;;;;;;6215454;23;20024;-76
2023/03/10 02:35:02;;;;;;;0.43;0.40;;;13.00;57.40;;;;;;6225001;23;20008;-76
2023/03/10 02:37:31;;;;;;;1.33;0.57;;;13.00;57.40;;;;;;6225061;23;20463;-76
2023/03/10 02:39:58;;;;;;;0.55;0.32;;;13.00;57.40;;;;;;6225088;23;20000;-76
2023/03/10 02:42:33;;;;;;;0.40;0.40;;;13.00;57.40;;;;;;6225083;23;20364;-75
2023/03/10 02:45:01;;;;;;;0.50;0.50;;;13.00;57.40;;;;;;6215272;23;20320;-76
2023/03/10 02:47:26;;;;;;;0.40;0.40;;;13.00;57.40;;;;;;6224980;23;20004;-76
2023/03/10 02:49:52;;;;;;;0.38;0.38;;;13.00;57.40;;;;;;6224976;23;20000;-76
2023/03/10 02:52:38;;;;;;;0.47;0.43;;;13.00;57.40;;;;;;6224926;23;19993;-74
2023/03/10 02:55:04;;;;;;;0.40;0.30;;;13.00;57.40;;;;;;6215109;23;20009;-76
2023/03/10 02:57:29;;;;;;;0.50;0.50;;;13.00;57.50;;;;;;6215183;23;20004;-76
2023/03/10 02:59:55;;;;;;;0.40;0.40;;;13.00;57.40;;;;;;6215123;23;20005;-76
2023/03/10 03:02:21;;;;;;;0.40;0.40;;;13.00;57.50;;;;;;6224439;23;20084;-76
2023/03/10 03:04:46;;;;;;;0.50;0.50;;;13.00;57.40;;;;;;6224844;23;19997;-76
2023/03/10 03:07:12;;;;;;;0.40;0.40;;;13.00;57.40;;;;;;6224801;23;20003;-76
2023/03/10 03:09:38;;;;;;;0.50;0.25;;;13.00;57.40;;;;;;6224834;23;20000;-76
2023/03/10 03:12:03;;;;;;;0.45;0.45;;;13.00;57.40;;;;;;6224765;23;19993;-76
2023/03/10 03:14:29;;;;;;;0.35;0.30;;;13.00;57.40;;;;;;6224698;23;20039;-76
2023/03/10 03:16:54;;;;;;;0.40;0.40;;;13.00;57.40;;;;;;6224601;23;20084;-76
2023/03/10 03:19:20;;;;;;;0.40;0.40;;;13.00;57.30;;;;;;6224568;23;20035;-76
2023/03/10 03:21:48;;;;;;;0.50;0.50;;;13.00;57.40;;;;;;6224725;23;20054;-76
2023/03/10 03:24:19;;;;;;;0.50;0.50;;;13.00;57.40;;;;;;6214889;23;20031;-76
2023/03/10 03:26:45;;;;;;;0.55;0.50;;;13.00;57.40;;;;;;6213211;23;19997;-76
2023/03/10 03:29:11;;;;;;;0.55;0.55;;;13.00;57.40;;;;;;6224660;23;20007;-76
2023/03/10 03:31:37;;;;;;;0.47;0.47;;;13.00;57.40;;;;;;6224638;23;19993;-76
2023/03/10 03:34:03;;;;;;;0.63;0.63;;;13.00;58.00;;;;;;6224510;23;20006;-76
2023/03/10 03:36:29;;;;;;;0.93;0.55;;;13.00;57.40;;;;;;6224502;23;20012;-76
2023/03/10 03:38:54;;;;;;;0.60;0.40;;;13.00;57.40;;;;;;6224570;23;19997;-76
2023/03/10 03:41:20;;;;;;;0.68;0.50;;;13.00;57.40;;;;;;6224587;23;20008;-76
2023/03/10 03:43:46;;;;;;;0.60;0.60;;;13.00;57.40;;;;;;6224512;23;19992;-76
2023/03/10 03:46:14;;;;;;;0.43;0.43;;;13.00;57.40;;;;;;6224536;23;20001;-71
2023/03/10 03:48:40;;;;;;;0.30;0.30;;;13.00;57.60;;;;;;6224474;23;20050;-71
2023/03/10 03:51:05;;;;;;;0.60;0.40;;;13.00;57.40;;;;;;6224481;23;20001;-71
2023/03/10 03:53:32;;;;;;;0.60;0.60;;;13.00;57.40;;;;;;6224302;23;20004;-71
2023/03/10 03:55:58;;;;;;;0.50;0.50;;;13.00;57.40;;;;;;6224382;23;20475;-71
2023/03/10 03:58:24;;;;;;;0.35;0.32;;;13.00;57.30;;;;;;6224425;23;19993;-71
2023/03/10 04:00:50;;;;;;;0.50;0.40;;;13.00;57.30;;;;;;6224480;23;20391;-71
2023/03/10 04:03:16;;;;;;;0.57;0.40;;;13.00;57.40;;;;;;6224235;23;20063;-74
2023/03/10 04:05:43;;;;;;;0.40;0.40;;;12.90;57.40;;;;;;6223117;23;19996;-71
2023/03/10 04:08:10;;;;;;;0.40;0.40;;;12.90;57.40;;;;;;6224408;23;20000;-71
2023/03/10 04:10:36;;;;;;;1.33;0.57;;;12.90;57.40;;;;;;6224385;23;19996;-71
2023/03/10 04:13:02;;;;;;;0.50;0.50;;;12.90;57.40;;;;;;6224389;23;20613;-71
2023/03/10 04:15:27;;;;;;;0.50;0.50;;;12.90;57.40;;;;;;6224296;23;20008;-71
2023/03/10 04:17:53;;;;;;;1.10;0.57;;;13.00;58.00;;;;;;6224464;23;20004;-71
2023/03/10 04:20:19;;;;;;;0.50;0.50;;;13.00;57.40;;;;;;6224335;23;20000;-71
2023/03/10 04:22:44;;;;;;;0.60;0.60;;;12.90;57.30;;;;;;6224585;23;19997;-71
2023/03/10 04:25:10;;;;;;;1.95;0.63;;;13.00;57.40;;;;;;6224445;23;20177;-71
2023/03/10 04:27:36;;;;;;;0.70;0.60;;;12.90;57.30;;;;;;6224279;23;20035;-71
2023/03/10 04:30:03;;;;;;;0.70;0.63;;;13.00;57.40;;;;;;6225164;23;20028;-71
2023/03/10 04:32:28;;;;;;;0.70;0.70;;;13.00;57.30;;;;;;6226174;23;20004;-71
2023/03/10 04:34:54;;;;;;;0.50;0.50;;;13.00;57.40;;;;;;6226184;23;20004;-71
2023/03/10 04:37:20;;;;;;;0.60;0.60;;;13.00;57.30;;;;;;6226195;23;19997;-71
2023/03/10 04:39:46;;;;;;;0.70;0.50;;;12.90;57.30;;;;;;6226261;23;20067;-74
2023/03/10 04:42:11;;;;;;;0.63;0.60;;;12.90;57.40;;;;;;6226245;23;20032;-71
2023/03/10 04:44:37;;;;;;;0.70;0.50;;;12.90;57.40;;;;;;6226142;23;20047;-71
2023/03/10 04:47:03;;;;;;;0.60;0.60;;;12.90;57.40;;;;;;6226061;23;20004;-71
2023/03/10 04:49:28;;;;;;;0.60;0.60;;;12.90;57.50;;;;;;6224525;23;20428;-72
2023/03/10 04:51:54;;;;;;;0.68;0.68;;;13.00;57.50;;;;;;6226017;23;20084;-71
2023/03/10 04:54:20;;;;;;;0.75;0.75;;;12.90;57.50;;;;;;6216267;23;19993;-71
2023/03/10 04:56:46;;;;;;;0.77;0.70;;;12.90;57.40;;;;;;6225847;23;20083;-71
2023/03/10 04:59:11;;;;;;;0.75;0.75;;;13.00;57.50;;;;;;6226070;23;20001;-71
2023/03/10 05:01:37;;;;;;;0.80;0.80;;;13.00;57.50;;;;;;6216206;23;20096;-71
2023/03/10 05:04:04;;;;;;;0.70;0.70;;;13.00;57.50;;;;;;6225750;23;20332;-72
2023/03/10 05:06:30;;;;;;;0.45;0.45;;;13.00;57.50;;;;;;6225996;23;20332;-71
2023/03/10 05:08:56;;;;;;;0.60;0.60;;;13.00;57.60;;;;;;6225857;23;20004;-71
2023/03/10 05:11:22;;;;;;;1.20;0.60;;;13.00;57.60;;;;;;6225947;23;20005;-71
2023/03/10 05:13:49;;;;;;;0.70;0.70;;;13.00;57.50;;;;;;6225879;23;20605;-71
2023/03/10 05:16:18;;;;;;;0.88;0.88;;;13.00;57.60;;;;;;6225825;23;20008;-72
2023/03/10 05:18:43;;;;;;;0.60;0.60;;;13.00;57.50;;;;;;6225864;23;20001;-76
2023/03/10 05:21:09;;;;;;;1.35;0.93;;;13.00;57.50;;;;;;6225820;23;20000;-76
2023/03/10 05:23:36;;;;;;;0.90;0.80;;;13.00;57.50;;;;;;6215995;23;20000;-76
2023/03/10 05:26:06;;;;;;;0.60;0.50;;;13.00;58.20;;;;;;6214097;23;19996;-76
2023/03/10 05:28:31;;;;;;;1.00;0.90;;;13.00;57.50;;;;;;6225759;23;20097;-76
2023/03/10 05:30:57;;;;;;;0.70;0.50;;;13.00;57.50;;;;;;6225741;23;19992;-76
2023/03/10 05:33:23;;;;;;;0.90;0.60;;;13.00;57.50;;;;;;6225724;23;20337;-76
2023/03/10 05:35:48;;;;;;;0.70;0.65;;;13.00;57.50;;;;;;6225664;23;20005;-71
2023/03/10 05:38:14;;;;;;;0.68;0.65;;;13.00;57.50;;;;;;6225783;23;20017;-71
2023/03/10 05:40:40;;;;;;;0.80;0.60;;;13.00;57.50;;;;;;6225333;23;19997;-71
2023/03/10 05:43:06;;;;;;;0.50;0.50;;;13.00;57.50;;;;;;6225336;23;20000;-71
2023/03/10 05:45:32;;;;;;;0.50;0.50;;;13.00;58.10;;;;;;6225693;23;20328;-71
2023/03/10 05:47:57;;;;;;;0.73;0.50;;;13.00;57.50;;;;;;6225557;23;19996;-71
2023/03/10 05:50:23;;;;;;;0.50;0.50;;;13.00;57.50;;;;;;6225535;23;19996;-71
2023/03/10 05:52:49;;;;;;;0.50;0.50;;;13.00;57.50;;;;;;6225503;23;19997;-71
2023/03/10 05:55:17;;;;;;;0.40;0.40;;;13.10;57.50;;;;;;6225469;23;20009;-72
2023/03/10 05:57:43;;;;;;;0.57;0.55;;;13.00;57.40;;;;;;6225477;23;20123;-71
2023/03/10 06:00:11;;;;;;;0.55;0.55;;;13.00;57.40;;;;;;6225429;23;20003;-71
2023/03/10 06:02:38;;;;;;;1.10;0.80;;;13.10;57.50;;;;;;6225142;23;20124;-71
2023/03/10 06:05:05;;;;;;;0.45;0.40;;;13.00;57.40;;;;;;6225450;23;20001;-71
2023/03/10 06:07:31;;;;;;;0.65;0.50;;;13.00;57.40;;;;;;6215679;23;19997;-71
2023/03/10 06:09:56;;;;;;;0.77;0.60;;;13.00;57.50;;;;;;6225348;23;20320;-71
2023/03/10 06:12:22;;;;;;;0.82;0.60;;;13.10;57.50;;;;;;6225371;23;20003;-76
2023/03/10 06:14:48;;;;;;;0.57;0.50;;;13.00;57.40;;;;;;6225380;23;20043;-76
2023/03/10 06:17:13;;;;;;;0.85;0.40;;;13.00;57.40;;;;;;6225344;23;20007;-76
2023/03/10 06:19:39;;;;;;;0.52;0.52;;;13.10;57.40;;;;;;6225268;23;20007;-76
2023/03/10 06:22:04;;;;;;;0.30;0.30;;;13.10;57.50;;;;;;6225219;23;20020;-76
2023/03/10 06:24:30;;;;;;;0.40;0.40;;;13.10;57.40;;;;;;6225256;23;19997;-76
2023/03/10 06:26:56;;;;;;;1.27;0.50;;;13.10;57.50;;;;;;6225212;23;19997;-76
2023/03/10 06:29:21;;;;;;;0.40;0.40;;;13.10;57.40;;;;;;6226504;23;20000;-77
2023/03/10 06:31:47;;;;;;;0.40;0.40;;;13.10;57.40;;;;;;6233049;23;20401;-77
2023/03/10 06:34:12;;;;;;;4.28;0.60;;;13.10;57.50;;;;;;6225044;23;20317;-77
2023/03/10 06:36:39;;;;;;;1.77;0.50;;;13.10;57.50;;;;;;6225064;23;20008;-77
2023/03/10 06:39:05;;;;;;;3.83;0.70;;;13.10;58.20;;;;;;6224951;23;20399;-76
2023/03/10 06:41:31;;;;;;;1.88;0.80;;;13.10;57.70;;;;;;6225105;23;20031;-76
2023/03/10 06:43:57;;;;;;;2.70;0.80;;;13.10;57.70;;;;;;6225059;23;20047;-75
2023/03/10 06:46:24;;;;;;;1.67;0.60;;;13.10;57.70;;;;;;6224944;23;20001;-74
2023/03/10 06:48:50;;;;;;;0.57;0.47;;;13.00;57.70;;;;;;6215352;23;20020;-72
2023/03/10 06:51:18;;;;;;;1.52;0.68;;;13.10;58.30;;;;;;6224937;23;20024;-75
2023/03/10 06:53:44;;;;;;;3.30;0.52;;;13.10;57.70;;;;;;6224743;23;19993;-75
2023/03/10 06:56:19;;;;;;;3.03;0.40;;;13.10;57.70;;;;;;6224726;23;20004;-75
2023/03/10 06:58:45;;;;;;;2.20;0.60;;;13.10;57.70;;;;;;6225001;23;19992;-76
2023/03/10 07:01:27;;;;;;;0.50;0.50;;;13.10;57.70;;;;;;6214686;23;20440;-76
2023/03/10 07:03:54;;;;;;;1.55;0.60;;;13.10;57.70;;;;;;6214622;23;20016;-76
2023/03/10 07:06:21;;;;;;;1.42;0.70;;;13.10;57.70;;;;;;6215047;23;20662;-76
2023/03/10 07:08:46;;;;;;;0.63;0.50;;;13.10;57.70;;;;;;6224731;23;20008;-76
2023/03/10 07:11:13;;;;;;;0.88;0.60;;;13.10;57.80;;;;;;6215046;23;20078;-76
2023/03/10 07:13:39;;;;;;;1.27;0.52;;;13.10;58.50;;;;;;6215053;23;20401;-76
2023/03/10 07:16:05;;;;;;;0.95;0.68;;;13.10;57.90;;;;;;6214820;23;20009;-76
2023/03/10 07:18:31;;;;;;;1.98;0.70;;;13.10;58.00;;;;;;6213038;23;20385;-76
2023/03/10 07:20:57;;;;;;;0.82;0.45;;;13.10;58.00;;;;;;6214597;23;20072;-77
2023/03/10 07:23:23;;;;;;;1.08;0.50;;;13.10;58.00;;;;;;6224575;23;20012;-77
2023/03/10 07:25:56;;;;;;;0.50;0.50;;;13.10;58.10;;;;;;6224697;23;19996;-76
2023/03/10 07:28:26;;;;;;;1.52;1.02;;;13.20;58.10;;;;;;6224620;23;20080;-76
2023/03/10 07:30:53;;;;;;;0.63;0.47;;;13.20;58.10;;;;;;6224562;23;20001;-76
2023/03/10 07:33:19;;;;;;;1.25;0.63;;;13.20;58.10;;;;;;6224636;23;20495;-77
2023/03/10 07:35:45;;;;;;;0.63;0.50;;;13.20;58.10;;;;;;6214791;23;20008;-76
2023/03/10 07:38:11;;;;;;;0.75;0.45;;;13.20;58.20;;;;;;6214741;23;20324;-76
2023/03/10 07:40:40;;;;;;;0.93;0.60;;;13.20;58.10;;;;;;6216122;23;19997;-74
2023/03/10 07:43:06;;;;;;;0.95;0.88;;;13.30;58.20;;;;;;6216554;23;19999;-76
2023/03/10 07:45:33;;;;;;;1.23;0.60;;;13.30;58.10;;;;;;6214471;23;20324;-74
2023/03/10 07:47:59;;;;;;;1.00;0.88;;;13.30;58.10;;;;;;6214452;23;19997;-74
2023/03/10 07:50:25;;;;;;;0.85;0.60;;;13.30;58.10;;;;;;6214386;23;19997;-74
2023/03/10 07:52:51;;;;;;;0.98;0.52;;;13.30;58.10;;;;;;6214374;23;20431;-75
2023/03/10 07:55:17;;;;;;;0.73;0.60;;;13.40;58.20;;;;;;6214891;23;20009;-74
2023/03/10 07:57:43;;;;;;;2.08;0.60;;;13.40;58.10;;;;;;6214726;23;20019;-74
2023/03/10 08:00:10;;;;;;;0.98;0.70;;;13.40;58.00;;;;;;6214659;23;20059;-75
2023/03/10 08:02:36;;;;;;;0.95;0.68;;;13.40;58.00;;;;;;6213992;23;20435;-75
2023/03/10 08:05:03;;;;;;;0.90;0.60;;;13.40;58.00;;;;;;6215493;23;20046;-75
2023/03/10 08:07:30;;;;;;;1.25;0.50;;;13.40;58.20;;;;;;6216648;23;20020;-80
2023/03/10 08:09:56;;;;;;;1.17;0.93;;;13.50;58.20;;;;;;6216758;23;20328;-75
2023/03/10 08:12:22;;;;;;;0.73;0.73;;;13.40;58.70;;;;;;6226388;23;19997;-76
2023/03/10 08:14:49;;;;;;;1.40;1.10;;;13.50;58.20;;;;;;6230452;23;20000;-73
2023/03/10 08:17:15;;;;;;;2.08;0.95;;;13.40;57.90;;;;;;6230741;23;20328;-75
2023/03/10 08:19:41;;;;;;;0.90;0.80;;;13.50;57.90;;;;;;6226426;23;20000;-74
2023/03/10 08:22:08;;;;;;;1.38;1.05;;;13.50;58.00;;;;;;6226466;23;20027;-72
2023/03/10 08:24:36;;;;;;;1.35;1.00;;;13.50;57.90;;;;;;6226396;23;19992;-72
2023/03/10 08:27:02;;;;;;;1.02;0.95;;;13.50;58.00;;;;;;6216554;23;20131;-72
2023/03/10 08:29:28;;;;;;;1.02;0.82;;;13.60;57.90;;;;;;6216522;23;20004;-73
2023/03/10 08:31:54;;;;;;;1.30;1.20;;;13.50;57.80;;;;;;6216562;23;20012;-72
2023/03/10 08:34:20;;;;;;;1.05;0.95;;;13.50;57.90;;;;;;6216497;23;20055;-73
2023/03/10 08:36:46;;;;;;;0.80;0.80;;;13.60;57.90;;;;;;6216593;23;20013;-73
2023/03/10 08:39:12;;;;;;;1.10;1.00;;;13.60;57.90;;;;;;6215963;23;20504;-69
2023/03/10 08:41:45;;;;;;;1.85;1.50;;;13.60;57.90;;;;;;6226224;23;20000;-73
2023/03/10 08:44:14;;;;;;;1.67;1.30;;;13.60;57.70;;;;;;6216235;23;20007;-74
2023/03/10 08:46:45;;;;;;;0.93;0.90;;;13.60;57.70;;;;;;6216228;23;20009;-73
2023/03/10 08:49:12;;;;;;;1.00;0.90;;;13.60;57.90;;;;;;6226107;23;20005;-74
2023/03/10 08:51:38;;;;;;;3.20;1.20;;;13.60;57.90;;;;;;6225926;23;20375;-73
2023/03/10 08:54:04;;;;;;;1.60;1.20;;;13.60;57.80;;;;;;6226127;23;20000;-74
2023/03/10 08:56:30;;;;;;;2.67;1.23;;;13.60;58.00;;;;;;6225989;23;20009;-74
2023/03/10 08:58:58;;;;;;;1.30;1.20;;;13.60;57.90;;;;;;6226144;23;20063;-70
2023/03/10 09:01:25;;;;;;;1.15;1.02;;;13.70;67.20;;;;;;6215743;23;19997;-69
2023/03/10 09:03:51;;;;;;;2.22;1.35;;;13.90;58.10;;;;;;6225719;23;20019;-69
2023/03/10 09:06:17;;;;;;;2.08;1.58;;;13.60;58.00;;;;;;6225962;23;20021;-70
2023/03/10 09:08:43;;;;;;;1.30;1.20;;;13.70;57.90;;;;;;6225874;23;20024;-70
2023/03/10 09:11:14;;;;;;;2.47;0.80;;;13.70;58.30;;;;;;6225954;23;20448;-69
2023/03/10 09:13:40;;;;;;;1.65;1.23;;;13.70;58.00;;;;;;6226000;23;20020;-69
2023/03/10 09:16:08;;;;;;;0.88;0.75;;;13.70;58.00;;;;;;6215882;23;20340;-70
2023/03/10 09:18:33;;;;;;;1.65;1.00;;;13.70;58.00;;;;;;6216189;23;20398;-69
2023/03/10 09:20:59;;;;;;;1.00;0.90;;;13.70;58.00;;;;;;6225772;23;20023;-70
2023/03/10 09:23:25;;;;;;;1.70;1.20;;;13.70;58.00;;;;;;6225820;23;20328;-69
2023/03/10 09:25:51;;;;;;;1.75;1.08;;;13.70;58.00;;;;;;6225698;23;20048;-69
2023/03/10 09:28:16;;;;;;;1.45;1.20;;;13.70;58.00;;;;;;6225764;23;20003;-70
2023/03/10 09:30:42;;;;;;;0.90;0.75;;;13.70;58.00;;;;;;6225683;23;20000;-70
2023/03/10 09:33:17;;;;;;;1.13;1.02;;;13.70;58.00;;;;;;6225702;23;20066;-70
2023/03/10 09:35:43;;;;;;;1.10;1.00;;;13.70;58.00;;;;;;6225634;23;20008;-75
2023/03/10 09:38:09;;;;;;;1.20;1.10;;;13.70;58.00;;;;;;6225640;23;20127;-74
2023/03/10 09:40:36;;;;;;;1.92;1.10;;;13.70;58.00;;;;;;6225688;23;20396;-75
2023/03/10 09:43:04;;;;;;;1.27;0.90;;;13.70;58.00;;;;;;6225519;23;20020;-75
2023/03/10 09:46:07;;;;;;;1.30;1.15;;;13.80;58.00;;;;;;6225644;23;20004;-74
2023/03/10 09:49:16;;;;;;;0.80;0.80;;;13.80;58.00;;;;;;6215920;23;19996;-75
2023/03/10 09:51:47;;;;;;;1.40;1.00;;;13.80;58.00;;;;;;6191038;23;20028;-70
2023/03/10 09:54:36;;;;;;;0.98;0.93;;;13.80;58.00;;;;;;6225598;23;19992;-70
2023/03/10 09:57:12;;;;;;;2.05;1.30;;;13.80;57.70;;;;;;6215192;23;20012;-70
2023/03/10 09:59:41;;;;;;;1.50;1.40;;;13.80;57.60;;;;;;6215376;23;20424;-70
2023/03/10 10:02:25;;;;;;;1.25;1.15;;;13.80;57.70;;;;;;6215001;23;20506;-70
2023/03/10 10:05:01;;;;;;;1.30;1.20;;;13.80;57.70;;;;;;6225662;23;20005;-69
2023/03/10 10:07:35;;;;;;;1.58;1.27;;;13.80;57.90;;;;;;6226641;23;20000;-70
2023/03/10 10:10:34;;;;;;;1.50;1.05;;;13.80;58.00;;;;;;6223917;23;20030;-70
2023/03/10 10:13:10;;;;;;;1.02;0.88;;;13.80;58.00;;;;;;6213715;23;20071;-73
2023/03/10 10:15:38;;;;;;;1.65;1.10;;;13.80;58.10;;;;;;6225283;23;20009;-73
2023/03/10 10:18:19;;;;;;;1.17;0.80;;;13.80;58.20;;;;;;6225209;23;19997;-73
2023/03/10 10:20:52;;;;;;;1.58;0.80;;;13.80;58.10;;;;;;6225247;23;20001;-72
2023/03/10 10:23:30;;;;;;;1.15;0.70;;;13.80;58.10;;;;;;6225197;23;20001;-75
2023/03/10 10:26:07;;;;;;;1.30;0.60;;;13.90;58.10;;;;;;6225238;23;19993;-75
2023/03/10 10:28:42;;;;;;;0.70;0.70;;;13.90;58.10;;;;;;6224923;23;20389;-71
2023/03/10 10:31:21;;;;;;;0.82;0.50;;;13.90;58.10;;;;;;6225231;23;20059;-75
2023/03/10 10:34:04;;;;;;;1.40;0.80;;;13.90;58.20;;;;;;6225262;23;20031;-74
2023/03/10 10:36:33;;;;;;;0.70;0.68;;;13.90;58.20;;;;;;6225053;23;20005;-73
2023/03/10 10:39:00;;;;;;;1.92;0.63;;;13.90;58.20;;;;;;6225114;23;20001;-73
2023/03/10 10:41:29;;;;;;;0.70;0.70;;;13.90;58.20;;;;;;6225028;23;19997;-75
2023/03/10 10:44:04;;;;;;;0.80;0.63;;;13.90;58.20;;;;;;6224971;23;20050;-76
2023/03/10 10:46:31;;;;;;;0.60;0.57;;;13.90;58.30;;;;;;6225083;23;20008;-75
2023/03/10 10:49:04;;;;;;;0.70;0.70;;;13.90;58.20;;;;;;6214915;23;19992;-74
2023/03/10 10:51:34;;;;;;;0.50;0.50;;;13.90;58.30;;;;;;6225026;23;20004;-76
2023/03/10 10:54:31;;;;;;;2.65;0.73;;;13.90;58.20;;;;;;6224889;23;20003;-74
2023/03/10 10:56:59;;;;;;;0.60;0.60;;;13.90;58.20;;;;;;6224773;23;20004;-72
2023/03/10 10:59:33;;;;;;;0.40;0.40;;;13.90;58.00;;;;;;6213245;23;20007;-72
2023/03/10 11:02:00;;;;;;;1.10;0.60;;;13.90;58.10;;;;;;6214618;23;20027;-73
2023/03/10 11:04:28;;;;;;;0.40;0.35;;;14.00;58.10;;;;;;6214492;23;20404;-74
2023/03/10 11:07:18;;;;;;;0.60;0.50;;;14.00;58.10;;;;;;6224935;23;19997;-75
2023/03/10 11:09:45;;;;;;;0.60;0.50;;;14.00;58.10;;;;;;6214704;23;20436;-75
2023/03/10 11:12:19;;;;;;;0.50;0.40;;;14.00;58.00;;;;;;6214982;23;20000;-74
2023/03/10 11:14:55;;;;;;;0.77;0.35;;;13.90;58.00;;;;;;6224826;23;20032;-73
2023/03/10 11:17:32;;;;;;;0.63;0.63;;;13.90;58.00;;;;;;6224695;23;20035;-73
2023/03/10 11:20:24;;;;;;;0.65;0.45;;;14.00;58.00;;;;;;6224760;23;20071;-75
2023/03/10 11:22:55;;;;;;;0.50;0.50;;;14.00;57.90;;;;;;6200900;23;20118;-73
2023/03/10 11:25:36;;;;;;;0.77;0.57;;;14.00;57.90;;;;;;6224709;23;20012;-73
2023/03/10 11:28:27;;;;;;;0.30;0.30;;;14.00;58.00;;;;;;6224750;23;20378;-73
2023/03/10 11:31:15;;;;;;;1.15;0.60;;;14.00;57.90;;;;;;6224552;23;20000;-74
2023/03/10 11:34:14;;;;;;;0.40;0.40;;;14.00;57.90;;;;;;6214842;23;20007;-75
2023/03/10 11:37:16;;;;;;;0.50;0.40;;;14.00;57.80;;;;;;6214754;23;20016;-74
2023/03/10 11:39:49;;;;;;;0.30;0.30;;;14.00;57.80;;;;;;6224606;23;20001;-74
2023/03/10 11:42:36;;;;;;;0.50;0.40;;;14.00;57.70;;;;;;6214891;23;19997;-73
2023/03/10 11:45:16;;;;;;;0.93;0.50;;;14.00;57.80;;;;;;6224716;23;20028;-74
2023/03/10 11:48:27;;;;;;;0.68;0.30;;;14.00;57.80;;;;;;6224605;23;20028;-73
2023/03/10 11:50:54;;;;;;;0.52;0.40;;;14.00;57.70;;;;;;6158968;23;20492;-74
2023/03/10 11:53:44;;;;;;;0.70;0.38;;;14.00;57.70;;;;;;6224401;23;20371;-74
2023/03/10 11:56:16;;;;;;;0.40;0.40;;;14.00;57.50;;;;;;6224070;23;20439;-74
2023/03/10 11:58:45;;;;;;;0.25;0.25;;;14.00;57.60;;;;;;6214002;23;20499;-73
2023/03/10 12:01:40;;;;;;;0.73;0.30;;;14.10;57.30;;;;;;6224040;23;20496;-73
2023/03/10 12:04:36;;;;;;;0.38;0.30;;;14.00;57.40;;;;;;6204443;23;20052;-72
2023/03/10 12:07:27;;;;;;;1.45;0.35;;;14.00;57.50;;;;;;6208536;23;20027;-74
2023/03/10 12:09:59;;;;;;;0.30;0.30;;;14.00;57.60;;;;;;6224126;23;19996;-74
2023/03/10 12:12:32;;;;;;;0.30;0.30;;;14.00;57.60;;;;;;6224049;23;20028;-74
2023/03/10 12:15:01;;;;;;;0.47;0.35;;;14.00;57.40;;;;;;6223960;23;20007;-74
2023/03/10 12:17:28;;;;;;;0.50;0.32;;;14.00;57.50;;;;;;6214367;23;20325;-74
2023/03/10 12:20:10;;;;;;;0.30;0.30;;;14.00;57.60;;;;;;6224050;23;20024;-71
2023/03/10 12:22:41;;;;;;;0.20;0.17;;;14.00;57.70;;;;;;6224046;23;20002;-74
2023/03/10 12:25:46;;;;;;;0.30;0.30;;;14.00;57.70;;;;;;6216232;23;20000;-75
2023/03/10 12:28:25;;;;;;;0.25;0.25;;;14.00;57.60;;;;;;6161130;23;20010;-75
2023/03/10 12:31:05;;;;;;;0.38;0.30;;;14.00;57.60;;;;;;6161203;23;20010;-74
2023/03/10 12:33:32;;;;;;;0.38;0.38;;;14.00;57.50;;;;;;6202080;23;19997;-74
2023/03/10 12:36:04;;;;;;;0.47;0.38;;;14.00;57.50;;;;;;6223909;23;20009;-72
2023/03/10 12:38:46;;;;;;;1.65;0.30;;;14.00;57.60;;;;;;6223951;23;19996;-71
2023/03/10 12:41:33;;;;;;;0.20;0.20;;;14.00;57.60;;;;;;6224067;23;19997;-70
2023/03/10 12:44:06;;;;;;;1.65;0.30;;;14.00;57.60;;;;;;6213865;23;20001;-70
2023/03/10 12:47:00;;;;;;;0.40;0.40;;;14.00;57.50;;;;;;6223760;23;20004;-70
2023/03/10 12:49:39;;;;;;;1.67;0.50;;;14.00;57.60;;;;;;6223585;23;20004;-71
2023/03/10 12:52:28;;;;;;;0.50;0.33;;;14.00;57.40;;;;;;6225179;23;20020;-71
2023/03/10 12:55:16;;;;;;;0.50;0.50;;;14.00;57.60;;;;;;6225721;23;20004;-71
2023/03/10 12:57:59;;;;;;;0.50;0.28;;;14.00;57.50;;;;;;6225458;23;20049;-73
2023/03/10 13:00:46;;;;;;;0.45;0.35;;;14.00;57.60;;;;;;6225423;23;20062;-72
2023/03/10 13:03:26;;;;;;;0.52;0.30;;;14.00;57.50;;;;;;6224971;23;20082;-72